Flight Track Log - Related Links

Times and Time Zones

All times are in EDT time to prevent confusion due to time zone crossing. See the N877PM flight status page for this flight to view local times or setup timezone preferences in your user account.

Time Position Orientation Groundspeed Altitude Reporting Facility
EDT Latitude Longitude Course Direction KTS MPH feet Rate Location/Type
Sat 09:22:50 40.3253 -96.6133 65° Northeast 198 228 7,200  Level Minneapolis Center
Sat 09:23:51 40.3492 -96.5378 67° East 213 245 9,500 2,213 Climbing Minneapolis Center
Sat 09:24:52 40.3756 -96.4642 65° Northeast 219 252 11,700 2,213 Climbing Minneapolis Center
Sat 09:25:53 40.4067 -96.3725 66° East 226 260 14,000 2,016 Climbing Minneapolis Center
Sat 09:26:54 40.4333 -96.2906 67° East 239 275 15,800 1,869 Climbing Minneapolis Center
Sat 09:27:00 40.4852 -96.1945 66° East  Level FlightAware Approximate
Sat 09:27:55 40.4525 -96.2025 74° East 246 283 17,800  Level Minneapolis Center
Sat 09:28:56 40.4661 -96.1131 79° East 247 284 19,500 1,659 Climbing Minneapolis Center
Sat 09:29:58 40.4831 -96.0153 77° East 267 307 21,200 1,610 Climbing Minneapolis Center
Sat 09:30:59 40.4994 -95.9156 78° East 275 316 22,800 885 Climbing Minneapolis Center
Sat 09:32:00 40.5375 -95.8139 64° Northeast 301 346 23,000 836 Climbing Minneapolis Center
Sat 09:33:01 40.5783 -95.6986 65° Northeast 336 387 24,500 1,525 Climbing Minneapolis Center
Sat 09:34:02 40.6175 -95.5850 66° East 339 390 26,100 1,623 Climbing Minneapolis Center
Sat 09:35:03 40.6550 -95.4747 66° East 339 390 27,800 1,672 Climbing Minneapolis Center
Sat 09:36:04 40.7000 -95.3439 66° East 333 383 29,500 1,574 Climbing Minneapolis Center
Sat 09:37:05 40.7375 -95.2322 66° East 332 382 31,000 732 Climbing Minneapolis Center
Sat 09:38:07 40.7764 -95.1131 67° East 344 396 31,000  Level Minneapolis Center
Sat 09:39:08 40.8211 -94.9819 66° East 376 433 31,000  Level Minneapolis Center
Sat 09:40:09 40.8681 -94.8478 65° Northeast 395 455 31,000  Level Minneapolis Center
Sat 09:41:10 40.9125 -94.7125 66° East 397 457 31,000  Level Minneapolis Center
Sat 09:42:11 40.9572 -94.5775 66° East 401 461 31,000  Level Minneapolis Center
Sat 09:43:13 41.0044 -94.4339 66° East 401 461 31,000  Level Minneapolis Center
Sat 09:44:14 41.0486 -94.3006 66° East 401 461 31,000  Level Minneapolis Center
Sat 09:45:15 41.0942 -94.1656 66° East 401 461 31,000  Level Minneapolis Center
Sat 09:46:16 41.1358 -94.0328 67° East 399 459 31,000  Level Minneapolis Center
Sat 09:47:17 41.1781 -93.9028 67° East 393 452 31,000 -390 Level Minneapolis Center
Sat 09:48:19 41.2308 -93.7431 66° East 393 452 30,200 -1,317 Descending Minneapolis Center
Sat 09:49:20 41.2719 -93.6114 67° East 393 452 28,300 -1,918 Descending Minneapolis Center
Sat 09:50:21 41.3142 -93.4764 67° East 393 452 26,300 -1,967 Descending Minneapolis Center
Sat 09:51:22 41.3578 -93.3422 67° East 393 452 24,300 -1,951 Descending Minneapolis Center
Sat 09:52:24 41.4006 -93.2100 67° East 393 452 22,300 -1,951 Descending Minneapolis Center
Sat 09:53:25 41.4419 -93.0753 68° East 393 452 20,300 -1,967 Descending Minneapolis Center
Sat 09:54:26 41.4858 -92.9383 67° East 395 455 18,300 -2,016 Descending Minneapolis Center
Sat 09:55:27 41.5286 -92.8022 67° East 398 458 16,200 -2,098 Descending Minneapolis Center
Sat 09:56:29 41.5692 -92.6708 68° East 392 451 14,000 -2,208 Descending Minneapolis Center
Sat 09:57:32 41.6133 -92.5236 68° East 366 421 11,600 -1,440 Descending Chicago Center
Sat 09:58:34 41.6492 -92.4094 67° East 343 395 11,000 -1,024 Descending Chicago Center
Sat 09:59:35 41.6822 -92.3008 68° East 325 374 9,500 -1,707 Descending Chicago Center
Sat 10:00:37 41.7142 -92.1978 67° East 310 357 7,500 -1,694 Descending Chicago Center
Sat 10:01:39 41.7503 -92.0731 69° East 306 352 6,000 -732 Descending Chicago Center
Sat 10:02:40 41.7625 -91.9719 81° East 284 327 6,000  Level Chicago Center
Sat 10:03:42 41.7753 -91.8656 81° East 288 331 6,000 -677 Level Chicago Center
Sat 10:04:44 41.7883 -91.7689 80° East 278 320 4,600 -1,512 Descending Chicago Center
Sat 10:05:45 41.8208 -91.6906 61° Northeast 261 300 2,900 -1,415 Descending Chicago Center
Sat 10:06:47 41.8625 -91.6647 25° Northeast 205 236 1,700 -1,161 Descending Chicago Center

Login

Don't have an account? Register now (free) for customized features, flight alerts, and more!